Terminal Aerodrome Forecast
Issued by NWS

Home | Current Version | Previous Version | Text Only | Print | Product List | Glossary On
Versions: 1 2 3 4 5 6 7 8 9 10 11 12 13
000
FTUS46 KMTR 210548
TAFSJC
TAF
KSJC 210548Z 2106/2206 13015G23KT P6SM -SHRA BKN030 OVC070
      WS020/21060KT
     FM211300 16015KT P6SM -SHRA BKN040 BKN080
     FM211900 21015G22KT P6SM -SHRA BKN040 BKN060
     FM220300 24010KT P6SM BKN100=

USA.gov is the U.S. government's official web portal to all federal, state and local government web resources and services.